sensor_id;sensor_type;location;lat;lon;timestamp;P1;durP1;ratioP1;P2;durP2;ratioP2
51981;SDS011;37998;53.416;6.730;2023-05-02T00:02:17;12.77;;;5.97;;
51981;SDS011;37998;53.416;6.730;2023-05-02T00:04:43;20.35;;;6.97;;
51981;SDS011;37998;53.416;6.730;2023-05-02T00:07:09;12.45;;;4.57;;
51981;SDS011;37998;53.416;6.730;2023-05-02T00:09:36;14.07;;;5.43;;
51981;SDS011;37998;53.416;6.730;2023-05-02T00:12:02;12.70;;;4.68;;
51981;SDS011;37998;53.416;6.730;2023-05-02T00:14:28;9.85;;;4.65;;
51981;SDS011;37998;53.416;6.730;2023-05-02T00:16:54;9.82;;;4.10;;
51981;SDS011;37998;53.416;6.730;2023-05-02T00:19:20;11.18;;;4.55;;
51981;SDS011;37998;53.416;6.730;2023-05-02T00:21:46;14.50;;;5.35;;
51981;SDS011;37998;53.416;6.730;2023-05-02T00:24:14;12.50;;;4.97;;
51981;SDS011;37998;53.416;6.730;2023-05-02T00:26:40;13.68;;;5.00;;
51981;SDS011;37998;53.416;6.730;2023-05-02T00:29:06;12.55;;;5.82;;
51981;SDS011;37998;53.416;6.730;2023-05-02T00:31:32;15.63;;;5.53;;
51981;SDS011;37998;53.416;6.730;2023-05-02T00:33:59;9.43;;;4.65;;
51981;SDS011;37998;53.416;6.730;2023-05-02T00:36:25;12.13;;;4.25;;
51981;SDS011;37998;53.416;6.730;2023-05-02T00:38:51;12.07;;;4.93;;
51981;SDS011;37998;53.416;6.730;2023-05-02T00:41:17;9.30;;;4.40;;
51981;SDS011;37998;53.416;6.730;2023-05-02T00:43:43;20.38;;;5.53;;
51981;SDS011;37998;53.416;6.730;2023-05-02T00:46:09;18.15;;;6.22;;
51981;SDS011;37998;53.416;6.730;2023-05-02T00:48:37;16.05;;;5.40;;
51981;SDS011;37998;53.416;6.730;2023-05-02T00:51:03;17.65;;;5.30;;
51981;SDS011;37998;53.416;6.730;2023-05-02T00:53:30;20.95;;;6.53;;
51981;SDS011;37998;53.416;6.730;2023-05-02T00:55:57;22.88;;;5.93;;
51981;SDS011;37998;53.416;6.730;2023-05-02T00:58:23;13.60;;;4.40;;
51981;SDS011;37998;53.416;6.730;2023-05-02T01:00:56;20.05;;;4.88;;
51981;SDS011;37998;53.416;6.730;2023-05-02T01:06:30;11.27;;;3.80;;
51981;SDS011;37998;53.416;6.730;2023-05-02T01:14:28;14.73;;;4.82;;
51981;SDS011;37998;53.416;6.730;2023-05-02T01:16:57;18.05;;;4.20;;
51981;SDS011;37998;53.416;6.730;2023-05-02T01:19:31;20.00;;;5.03;;
51981;SDS011;37998;53.416;6.730;2023-05-02T01:22:01;22.75;;;6.28;;
51981;SDS011;37998;53.416;6.730;2023-05-02T01:24:31;17.50;;;4.90;;
51981;SDS011;37998;53.416;6.730;2023-05-02T01:27:14;20.05;;;5.90;;
51981;SDS011;37998;53.416;6.730;2023-05-02T01:29:49;14.70;;;4.55;;
51981;SDS011;37998;53.416;6.730;2023-05-02T01:32:17;16.02;;;4.70;;
51981;SDS011;37998;53.416;6.730;2023-05-02T01:34:46;15.98;;;4.53;;
51981;SDS011;37998;53.416;6.730;2023-05-02T01:37:14;22.27;;;5.40;;
51981;SDS011;37998;53.416;6.730;2023-05-02T01:39:42;23.08;;;6.00;;
51981;SDS011;37998;53.416;6.730;2023-05-02T01:42:08;25.58;;;6.93;;
51981;SDS011;37998;53.416;6.730;2023-05-02T01:44:37;22.08;;;6.68;;
51981;SDS011;37998;53.416;6.730;2023-05-02T01:47:04;21.60;;;5.97;;
51981;SDS011;37998;53.416;6.730;2023-05-02T01:49:33;25.58;;;6.50;;
51981;SDS011;37998;53.416;6.730;2023-05-02T01:52:02;27.13;;;6.18;;
51981;SDS011;37998;53.416;6.730;2023-05-02T01:54:32;18.50;;;5.45;;
51981;SDS011;37998;53.416;6.730;2023-05-02T01:57:01;18.42;;;5.25;;
51981;SDS011;37998;53.416;6.730;2023-05-02T01:59:31;18.15;;;5.13;;
51981;SDS011;37998;53.416;6.730;2023-05-02T02:02:00;20.50;;;5.32;;
51981;SDS011;37998;53.416;6.730;2023-05-02T02:04:27;20.35;;;6.57;;
51981;SDS011;37998;53.416;6.730;2023-05-02T02:06:57;16.23;;;5.07;;
51981;SDS011;37998;53.416;6.730;2023-05-02T02:09:26;15.80;;;5.25;;
51981;SDS011;37998;53.416;6.730;2023-05-02T02:11:56;21.65;;;5.85;;
51981;SDS011;37998;53.416;6.730;2023-05-02T02:14:33;14.85;;;5.00;;
51981;SDS011;37998;53.416;6.730;2023-05-02T02:17:03;17.45;;;4.82;;
51981;SDS011;37998;53.416;6.730;2023-05-02T02:19:33;17.27;;;4.57;;
51981;SDS011;37998;53.416;6.730;2023-05-02T02:21:59;18.42;;;4.43;;
51981;SDS011;37998;53.416;6.730;2023-05-02T02:24:29;13.95;;;4.60;;
51981;SDS011;37998;53.416;6.730;2023-05-02T02:26:56;13.57;;;5.22;;
51981;SDS011;37998;53.416;6.730;2023-05-02T02:29:22;15.40;;;4.38;;
51981;SDS011;37998;53.416;6.730;2023-05-02T02:31:48;15.80;;;5.20;;
51981;SDS011;37998;53.416;6.730;2023-05-02T02:34:14;14.27;;;4.53;;
51981;SDS011;37998;53.416;6.730;2023-05-02T02:42:15;13.32;;;3.85;;
51981;SDS011;37998;53.416;6.730;2023-05-02T02:44:51;16.42;;;4.75;;
51981;SDS011;37998;53.416;6.730;2023-05-02T02:47:45;19.30;;;4.88;;
51981;SDS011;37998;53.416;6.730;2023-05-02T02:50:29;11.68;;;4.15;;
51981;SDS011;37998;53.416;6.730;2023-05-02T02:53:01;11.00;;;3.67;;
51981;SDS011;37998;53.416;6.730;2023-05-02T02:58:19;12.20;;;4.15;;
51981;SDS011;37998;53.416;6.730;2023-05-02T03:00:46;15.85;;;3.42;;
51981;SDS011;37998;53.416;6.730;2023-05-02T03:03:13;9.60;;;3.03;;
51981;SDS011;37998;53.416;6.730;2023-05-02T03:05:40;16.67;;;4.63;;
51981;SDS011;37998;53.416;6.730;2023-05-02T03:08:08;13.85;;;3.63;;
51981;SDS011;37998;53.416;6.730;2023-05-02T03:10:34;11.90;;;3.65;;
51981;SDS011;37998;53.416;6.730;2023-05-02T03:13:00;8.40;;;2.85;;
51981;SDS011;37998;53.416;6.730;2023-05-02T03:18:54;10.10;;;2.28;;
51981;SDS011;37998;53.416;6.730;2023-05-02T03:21:21;9.88;;;3.08;;
51981;SDS011;37998;53.416;6.730;2023-05-02T03:23:47;11.82;;;2.97;;
51981;SDS011;37998;53.416;6.730;2023-05-02T03:26:14;10.45;;;3.10;;
51981;SDS011;37998;53.416;6.730;2023-05-02T03:28:40;14.88;;;3.00;;
51981;SDS011;37998;53.416;6.730;2023-05-02T03:31:07;8.95;;;2.55;;
51981;SDS011;37998;53.416;6.730;2023-05-02T03:33:38;10.02;;;3.05;;
51981;SDS011;37998;53.416;6.730;2023-05-02T03:36:04;7.45;;;3.10;;
51981;SDS011;37998;53.416;6.730;2023-05-02T03:38:31;7.30;;;2.17;;
51981;SDS011;37998;53.416;6.730;2023-05-02T03:41:02;7.57;;;2.78;;
51981;SDS011;37998;53.416;6.730;2023-05-02T03:43:29;11.82;;;2.55;;
51981;SDS011;37998;53.416;6.730;2023-05-02T03:45:56;4.45;;;2.45;;
51981;SDS011;37998;53.416;6.730;2023-05-02T03:48:22;7.07;;;2.25;;
51981;SDS011;37998;53.416;6.730;2023-05-02T03:50:49;5.43;;;2.00;;
51981;SDS011;37998;53.416;6.730;2023-05-02T03:53:15;7.20;;;2.47;;
51981;SDS011;37998;53.416;6.730;2023-05-02T03:55:49;9.65;;;2.28;;
51981;SDS011;37998;53.416;6.730;2023-05-02T03:58:23;7.40;;;2.63;;
51981;SDS011;37998;53.416;6.730;2023-05-02T04:00:51;11.00;;;2.47;;
51981;SDS011;37998;53.416;6.730;2023-05-02T04:03:18;8.40;;;2.83;;
51981;SDS011;37998;53.416;6.730;2023-05-02T04:05:45;9.45;;;2.20;;
51981;SDS011;37998;53.416;6.730;2023-05-02T04:08:13;6.05;;;2.38;;
51981;SDS011;37998;53.416;6.730;2023-05-02T04:10:40;4.57;;;2.03;;
51981;SDS011;37998;53.416;6.730;2023-05-02T04:13:08;7.40;;;2.65;;
51981;SDS011;37998;53.416;6.730;2023-05-02T04:15:37;10.32;;;3.28;;
51981;SDS011;37998;53.416;6.730;2023-05-02T04:18:03;9.98;;;3.40;;
51981;SDS011;37998;53.416;6.730;2023-05-02T04:20:29;11.00;;;3.03;;
51981;SDS011;37998;53.416;6.730;2023-05-02T04:22:56;12.15;;;3.50;;
51981;SDS011;37998;53.416;6.730;2023-05-02T04:25:22;10.02;;;2.85;;
51981;SDS011;37998;53.416;6.730;2023-05-02T04:27:50;15.82;;;3.85;;
51981;SDS011;37998;53.416;6.730;2023-05-02T04:30:19;7.88;;;3.45;;
51981;SDS011;37998;53.416;6.730;2023-05-02T04:32:55;14.80;;;3.55;;
51981;SDS011;37998;53.416;6.730;2023-05-02T04:35:23;13.07;;;3.55;;
51981;SDS011;37998;53.416;6.730;2023-05-02T04:37:48;9.82;;;3.47;;
51981;SDS011;37998;53.416;6.730;2023-05-02T04:40:16;8.32;;;2.95;;
51981;SDS011;37998;53.416;6.730;2023-05-02T04:42:43;12.20;;;3.33;;
51981;SDS011;37998;53.416;6.730;2023-05-02T04:45:21;12.85;;;3.40;;
51981;SDS011;37998;53.416;6.730;2023-05-02T04:47:47;12.73;;;3.75;;
51981;SDS011;37998;53.416;6.730;2023-05-02T04:50:13;15.18;;;3.70;;
51981;SDS011;37998;53.416;6.730;2023-05-02T04:52:39;16.45;;;3.63;;
51981;SDS011;37998;53.416;6.730;2023-05-02T04:55:06;13.13;;;3.20;;
51981;SDS011;37998;53.416;6.730;2023-05-02T04:57:32;10.50;;;3.85;;
51981;SDS011;37998;53.416;6.730;2023-05-02T04:59:59;9.90;;;3.00;;
51981;SDS011;37998;53.416;6.730;2023-05-02T05:02:26;6.60;;;2.85;;
51981;SDS011;37998;53.416;6.730;2023-05-02T05:04:53;16.38;;;3.67;;
51981;SDS011;37998;53.416;6.730;2023-05-02T05:07:19;8.20;;;3.15;;
51981;SDS011;37998;53.416;6.730;2023-05-02T05:09:47;17.17;;;3.70;;
51981;SDS011;37998;53.416;6.730;2023-05-02T05:12:13;13.45;;;3.53;;
51981;SDS011;37998;53.416;6.730;2023-05-02T05:14:39;12.88;;;3.17;;
51981;SDS011;37998;53.416;6.730;2023-05-02T05:17:06;13.45;;;3.30;;
51981;SDS011;37998;53.416;6.730;2023-05-02T05:19:32;17.80;;;3.10;;
51981;SDS011;37998;53.416;6.730;2023-05-02T05:21:58;14.07;;;3.60;;
51981;SDS011;37998;53.416;6.730;2023-05-02T05:24:24;13.13;;;4.25;;
51981;SDS011;37998;53.416;6.730;2023-05-02T05:26:52;11.60;;;3.42;;
51981;SDS011;37998;53.416;6.730;2023-05-02T05:29:18;12.88;;;4.40;;
51981;SDS011;37998;53.416;6.730;2023-05-02T05:31:44;13.13;;;3.95;;
51981;SDS011;37998;53.416;6.730;2023-05-02T05:34:13;10.52;;;3.05;;
51981;SDS011;37998;53.416;6.730;2023-05-02T05:36:40;17.05;;;4.00;;
51981;SDS011;37998;53.416;6.730;2023-05-02T05:39:07;12.93;;;3.58;;
51981;SDS011;37998;53.416;6.730;2023-05-02T05:41:34;12.98;;;4.60;;
51981;SDS011;37998;53.416;6.730;2023-05-02T05:44:05;13.20;;;3.40;;
51981;SDS011;37998;53.416;6.730;2023-05-02T05:46:30;9.30;;;2.95;;
51981;SDS011;37998;53.416;6.730;2023-05-02T05:48:57;15.07;;;3.60;;
51981;SDS011;37998;53.416;6.730;2023-05-02T05:51:25;15.48;;;3.78;;
51981;SDS011;37998;53.416;6.730;2023-05-02T05:53:52;13.55;;;3.03;;
51981;SDS011;37998;53.416;6.730;2023-05-02T05:56:18;12.98;;;3.20;;
51981;SDS011;37998;53.416;6.730;2023-05-02T05:58:54;16.17;;;3.90;;
51981;SDS011;37998;53.416;6.730;2023-05-02T06:01:20;11.05;;;3.70;;
51981;SDS011;37998;53.416;6.730;2023-05-02T06:03:46;10.45;;;3.38;;
51981;SDS011;37998;53.416;6.730;2023-05-02T06:06:14;20.58;;;3.60;;
51981;SDS011;37998;53.416;6.730;2023-05-02T06:08:40;10.43;;;3.55;;
51981;SDS011;37998;53.416;6.730;2023-05-02T06:11:09;14.63;;;3.83;;
51981;SDS011;37998;53.416;6.730;2023-05-02T06:13:36;12.02;;;3.63;;
51981;SDS011;37998;53.416;6.730;2023-05-02T06:16:02;11.23;;;3.30;;
51981;SDS011;37998;53.416;6.730;2023-05-02T06:18:29;12.60;;;2.95;;
51981;SDS011;37998;53.416;6.730;2023-05-02T06:20:55;12.82;;;4.70;;
51981;SDS011;37998;53.416;6.730;2023-05-02T06:23:21;11.60;;;3.40;;
51981;SDS011;37998;53.416;6.730;2023-05-02T06:25:48;14.32;;;3.80;;
51981;SDS011;37998;53.416;6.730;2023-05-02T06:28:14;16.17;;;3.58;;
51981;SDS011;37998;53.416;6.730;2023-05-02T06:30:40;11.90;;;3.55;;
51981;SDS011;37998;53.416;6.730;2023-05-02T06:33:06;13.38;;;3.67;;
51981;SDS011;37998;53.416;6.730;2023-05-02T06:35:32;15.40;;;4.18;;
51981;SDS011;37998;53.416;6.730;2023-05-02T06:37:58;15.63;;;3.50;;
51981;SDS011;37998;53.416;6.730;2023-05-02T06:40:24;12.18;;;3.95;;
51981;SDS011;37998;53.416;6.730;2023-05-02T06:42:50;13.65;;;3.80;;
51981;SDS011;37998;53.416;6.730;2023-05-02T06:45:15;9.15;;;3.20;;
51981;SDS011;37998;53.416;6.730;2023-05-02T06:47:41;11.68;;;3.53;;
51981;SDS011;37998;53.416;6.730;2023-05-02T06:50:07;14.77;;;3.60;;
51981;SDS011;37998;53.416;6.730;2023-05-02T06:52:33;11.48;;;3.33;;
51981;SDS011;37998;53.416;6.730;2023-05-02T06:54:59;10.68;;;3.50;;
51981;SDS011;37998;53.416;6.730;2023-05-02T06:57:25;8.13;;;3.40;;
51981;SDS011;37998;53.416;6.730;2023-05-02T06:59:51;10.23;;;2.97;;
51981;SDS011;37998;53.416;6.730;2023-05-02T07:02:17;5.13;;;2.40;;
51981;SDS011;37998;53.416;6.730;2023-05-02T07:04:43;11.02;;;3.35;;
51981;SDS011;37998;53.416;6.730;2023-05-02T07:07:09;10.75;;;2.60;;
51981;SDS011;37998;53.416;6.730;2023-05-02T07:09:35;7.53;;;3.03;;
51981;SDS011;37998;53.416;6.730;2023-05-02T07:12:01;12.90;;;3.90;;
51981;SDS011;37998;53.416;6.730;2023-05-02T07:14:27;6.28;;;2.75;;
51981;SDS011;37998;53.416;6.730;2023-05-02T07:16:53;11.10;;;2.72;;
51981;SDS011;37998;53.416;6.730;2023-05-02T07:19:18;5.38;;;2.67;;
51981;SDS011;37998;53.416;6.730;2023-05-02T07:21:44;11.10;;;3.08;;
51981;SDS011;37998;53.416;6.730;2023-05-02T07:24:10;8.93;;;2.83;;
51981;SDS011;37998;53.416;6.730;2023-05-02T07:26:36;7.55;;;2.55;;
51981;SDS011;37998;53.416;6.730;2023-05-02T07:29:02;5.00;;;2.42;;
51981;SDS011;37998;53.416;6.730;2023-05-02T07:31:30;6.13;;;1.90;;
51981;SDS011;37998;53.416;6.730;2023-05-02T07:33:56;5.97;;;1.88;;
51981;SDS011;37998;53.416;6.730;2023-05-02T07:36:22;6.95;;;2.03;;
51981;SDS011;37998;53.416;6.730;2023-05-02T07:38:48;5.40;;;1.85;;
51981;SDS011;37998;53.416;6.730;2023-05-02T07:41:14;5.10;;;2.30;;
51981;SDS011;37998;53.416;6.730;2023-05-02T07:43:40;4.60;;;1.90;;
51981;SDS011;37998;53.416;6.730;2023-05-02T07:46:06;7.05;;;1.83;;
51981;SDS011;37998;53.416;6.730;2023-05-02T07:48:31;4.47;;;2.10;;
51981;SDS011;37998;53.416;6.730;2023-05-02T07:51:04;5.25;;;1.83;;
51981;SDS011;37998;53.416;6.730;2023-05-02T07:53:31;9.27;;;2.35;;
51981;SDS011;37998;53.416;6.730;2023-05-02T07:55:57;5.47;;;2.03;;
51981;SDS011;37998;53.416;6.730;2023-05-02T07:58:23;5.05;;;1.90;;
51981;SDS011;37998;53.416;6.730;2023-05-02T08:00:49;5.63;;;2.00;;
51981;SDS011;37998;53.416;6.730;2023-05-02T08:03:15;5.20;;;1.67;;
51981;SDS011;37998;53.416;6.730;2023-05-02T08:05:41;8.50;;;2.30;;
51981;SDS011;37998;53.416;6.730;2023-05-02T08:08:06;7.20;;;1.98;;
51981;SDS011;37998;53.416;6.730;2023-05-02T08:10:32;3.90;;;1.63;;
51981;SDS011;37998;53.416;6.730;2023-05-02T08:12:58;7.05;;;2.20;;
51981;SDS011;37998;53.416;6.730;2023-05-02T08:15:24;6.82;;;2.35;;
51981;SDS011;37998;53.416;6.730;2023-05-02T08:17:50;9.02;;;2.25;;
51981;SDS011;37998;53.416;6.730;2023-05-02T08:20:16;8.15;;;2.40;;
51981;SDS011;37998;53.416;6.730;2023-05-02T08:22:42;9.30;;;2.20;;
51981;SDS011;37998;53.416;6.730;2023-05-02T08:25:08;8.98;;;2.50;;
51981;SDS011;37998;53.416;6.730;2023-05-02T08:27:34;6.65;;;1.90;;
51981;SDS011;37998;53.416;6.730;2023-05-02T08:30:00;10.63;;;2.55;;
51981;SDS011;37998;53.416;6.730;2023-05-02T08:32:26;9.23;;;2.42;;
51981;SDS011;37998;53.416;6.730;2023-05-02T08:34:54;11.18;;;2.33;;
51981;SDS011;37998;53.416;6.730;2023-05-02T08:37:21;6.85;;;2.22;;
51981;SDS011;37998;53.416;6.730;2023-05-02T08:39:47;5.20;;;2.05;;
51981;SDS011;37998;53.416;6.730;2023-05-02T08:42:13;9.75;;;2.63;;
51981;SDS011;37998;53.416;6.730;2023-05-02T08:44:39;7.93;;;1.98;;
51981;SDS011;37998;53.416;6.730;2023-05-02T08:47:05;7.60;;;2.10;;
51981;SDS011;37998;53.416;6.730;2023-05-02T08:49:32;6.80;;;1.88;;
51981;SDS011;37998;53.416;6.730;2023-05-02T08:51:59;3.63;;;1.55;;
51981;SDS011;37998;53.416;6.730;2023-05-02T08:54:26;8.45;;;2.20;;
51981;SDS011;37998;53.416;6.730;2023-05-02T08:56:53;7.38;;;2.08;;
51981;SDS011;37998;53.416;6.730;2023-05-02T08:59:19;7.53;;;2.35;;
51981;SDS011;37998;53.416;6.730;2023-05-02T09:01:45;8.48;;;1.83;;
51981;SDS011;37998;53.416;6.730;2023-05-02T09:04:14;5.60;;;2.10;;
51981;SDS011;37998;53.416;6.730;2023-05-02T09:06:46;6.72;;;1.92;;
51981;SDS011;37998;53.416;6.730;2023-05-02T09:09:12;7.22;;;1.88;;
51981;SDS011;37998;53.416;6.730;2023-05-02T09:11:37;11.50;;;2.00;;
51981;SDS011;37998;53.416;6.730;2023-05-02T09:14:12;5.10;;;1.88;;
51981;SDS011;37998;53.416;6.730;2023-05-02T09:16:41;6.68;;;1.92;;
51981;SDS011;37998;53.416;6.730;2023-05-02T09:19:08;4.10;;;1.98;;
51981;SDS011;37998;53.416;6.730;2023-05-02T09:21:35;9.07;;;1.70;;
51981;SDS011;37998;53.416;6.730;2023-05-02T09:24:02;2.70;;;1.50;;
51981;SDS011;37998;53.416;6.730;2023-05-02T09:29:22;3.90;;;1.60;;
51981;SDS011;37998;53.416;6.730;2023-05-02T09:31:48;7.75;;;1.80;;
51981;SDS011;37998;53.416;6.730;2023-05-02T09:34:14;7.80;;;2.30;;
51981;SDS011;37998;53.416;6.730;2023-05-02T09:36:42;10.98;;;2.00;;
51981;SDS011;37998;53.416;6.730;2023-05-02T09:39:22;8.13;;;2.00;;
51981;SDS011;37998;53.416;6.730;2023-05-02T09:41:53;6.80;;;2.35;;
51981;SDS011;37998;53.416;6.730;2023-05-02T09:44:23;5.95;;;2.00;;
51981;SDS011;37998;53.416;6.730;2023-05-02T09:46:55;5.70;;;1.70;;
51981;SDS011;37998;53.416;6.730;2023-05-02T09:49:44;5.00;;;1.50;;
51981;SDS011;37998;53.416;6.730;2023-05-02T09:52:17;4.13;;;1.48;;
51981;SDS011;37998;53.416;6.730;2023-05-02T09:54:45;6.25;;;2.10;;
51981;SDS011;37998;53.416;6.730;2023-05-02T09:57:14;4.65;;;1.92;;
51981;SDS011;37998;53.416;6.730;2023-05-02T09:59:40;6.30;;;2.08;;
51981;SDS011;37998;53.416;6.730;2023-05-02T10:02:17;8.93;;;2.40;;
51981;SDS011;37998;53.416;6.730;2023-05-02T10:04:45;6.03;;;1.70;;
51981;SDS011;37998;53.416;6.730;2023-05-02T10:07:12;4.40;;;1.60;;
51981;SDS011;37998;53.416;6.730;2023-05-02T10:09:42;3.70;;;1.40;;
51981;SDS011;37998;53.416;6.730;2023-05-02T10:12:13;3.05;;;1.17;;
51981;SDS011;37998;53.416;6.730;2023-05-02T10:14:39;6.78;;;1.60;;
51981;SDS011;37998;53.416;6.730;2023-05-02T10:19:39;1.92;;;1.10;;
51981;SDS011;37998;53.416;6.730;2023-05-02T10:22:09;7.40;;;1.35;;
51981;SDS011;37998;53.416;6.730;2023-05-02T10:24:36;3.45;;;1.42;;
51981;SDS011;37998;53.416;6.730;2023-05-02T10:27:04;8.23;;;1.50;;
51981;SDS011;37998;53.416;6.730;2023-05-02T10:29:31;6.03;;;1.60;;
51981;SDS011;37998;53.416;6.730;2023-05-02T10:31:58;9.18;;;1.90;;
51981;SDS011;37998;53.416;6.730;2023-05-02T10:34:26;5.35;;;1.52;;
51981;SDS011;37998;53.416;6.730;2023-05-02T10:36:53;6.15;;;1.65;;
51981;SDS011;37998;53.416;6.730;2023-05-02T10:39:20;7.15;;;2.00;;
51981;SDS011;37998;53.416;6.730;2023-05-02T10:41:48;6.95;;;2.00;;
51981;SDS011;37998;53.416;6.730;2023-05-02T10:44:30;7.25;;;1.88;;
51981;SDS011;37998;53.416;6.730;2023-05-02T10:46:58;7.30;;;1.80;;
51981;SDS011;37998;53.416;6.730;2023-05-02T10:49:24;7.05;;;1.75;;
51981;SDS011;37998;53.416;6.730;2023-05-02T10:51:51;4.95;;;1.60;;
51981;SDS011;37998;53.416;6.730;2023-05-02T10:54:18;4.90;;;1.33;;
51981;SDS011;37998;53.416;6.730;2023-05-02T10:59:33;6.10;;;1.40;;
51981;SDS011;37998;53.416;6.730;2023-05-02T11:01:59;8.82;;;1.50;;
51981;SDS011;37998;53.416;6.730;2023-05-02T11:04:57;4.68;;;1.30;;
51981;SDS011;37998;53.416;6.730;2023-05-02T11:07:35;4.07;;;1.50;;
51981;SDS011;37998;53.416;6.730;2023-05-02T11:12:53;4.00;;;1.40;;
51981;SDS011;37998;53.416;6.730;2023-05-02T11:20:34;4.63;;;1.48;;
51981;SDS011;37998;53.416;6.730;2023-05-02T11:25:39;1.98;;;1.00;;
51981;SDS011;37998;53.416;6.730;2023-05-02T11:31:05;7.60;;;1.40;;
51981;SDS011;37998;53.416;6.730;2023-05-02T11:34:01;4.22;;;1.27;;
51981;SDS011;37998;53.416;6.730;2023-05-02T11:36:28;4.03;;;1.63;;
51981;SDS011;37998;53.416;6.730;2023-05-02T11:38:58;3.55;;;1.48;;
51981;SDS011;37998;53.416;6.730;2023-05-02T11:41:40;5.78;;;1.45;;
51981;SDS011;37998;53.416;6.730;2023-05-02T11:44:07;1.15;;;0.82;;
51981;SDS011;37998;53.416;6.730;2023-05-02T11:46:35;4.10;;;1.35;;
51981;SDS011;37998;53.416;6.730;2023-05-02T11:49:02;3.60;;;1.13;;
51981;SDS011;37998;53.416;6.730;2023-05-02T11:51:28;4.13;;;1.25;;
51981;SDS011;37998;53.416;6.730;2023-05-02T11:53:55;6.15;;;1.30;;
51981;SDS011;37998;53.416;6.730;2023-05-02T11:56:24;5.28;;;1.33;;
51981;SDS011;37998;53.416;6.730;2023-05-02T11:59:01;4.13;;;1.25;;
51981;SDS011;37998;53.416;6.730;2023-05-02T12:01:28;7.30;;;1.35;;
51981;SDS011;37998;53.416;6.730;2023-05-02T12:04:04;4.97;;;1.25;;
51981;SDS011;37998;53.416;6.730;2023-05-02T12:06:31;3.33;;;1.42;;
51981;SDS011;37998;53.416;6.730;2023-05-02T12:09:07;3.60;;;1.20;;
51981;SDS011;37998;53.416;6.730;2023-05-02T12:11:35;2.03;;;0.95;;
51981;SDS011;37998;53.416;6.730;2023-05-02T12:14:02;4.93;;;1.40;;
51981;SDS011;37998;53.416;6.730;2023-05-02T12:16:29;8.63;;;1.23;;
51981;SDS011;37998;53.416;6.730;2023-05-02T12:18:56;3.97;;;1.25;;
51981;SDS011;37998;53.416;6.730;2023-05-02T12:21:24;6.20;;;1.35;;
51981;SDS011;37998;53.416;6.730;2023-05-02T12:23:52;3.42;;;1.08;;
51981;SDS011;37998;53.416;6.730;2023-05-02T12:26:19;3.65;;;1.25;;
51981;SDS011;37998;53.416;6.730;2023-05-02T12:28:46;3.97;;;1.25;;
51981;SDS011;37998;53.416;6.730;2023-05-02T12:31:13;7.45;;;1.70;;
51981;SDS011;37998;53.416;6.730;2023-05-02T12:33:42;3.58;;;1.40;;
51981;SDS011;37998;53.416;6.730;2023-05-02T12:36:08;3.05;;;1.52;;
51981;SDS011;37998;53.416;6.730;2023-05-02T12:38:36;3.72;;;1.35;;
51981;SDS011;37998;53.416;6.730;2023-05-02T12:41:01;5.10;;;1.00;;
51981;SDS011;37998;53.416;6.730;2023-05-02T12:43:27;7.28;;;1.40;;
51981;SDS011;37998;53.416;6.730;2023-05-02T12:46:10;3.63;;;1.00;;
51981;SDS011;37998;53.416;6.730;2023-05-02T12:48:36;5.50;;;1.27;;
51981;SDS011;37998;53.416;6.730;2023-05-02T12:51:02;4.10;;;1.60;;
51981;SDS011;37998;53.416;6.730;2023-05-02T12:53:41;5.53;;;1.15;;
51981;SDS011;37998;53.416;6.730;2023-05-02T12:56:08;5.05;;;1.38;;
51981;SDS011;37998;53.416;6.730;2023-05-02T12:58:39;3.78;;;1.63;;
51981;SDS011;37998;53.416;6.730;2023-05-02T13:01:06;5.47;;;1.20;;
51981;SDS011;37998;53.416;6.730;2023-05-02T13:03:32;12.88;;;1.70;;
51981;SDS011;37998;53.416;6.730;2023-05-02T13:05:58;3.63;;;1.27;;
51981;SDS011;37998;53.416;6.730;2023-05-02T13:08:24;9.15;;;1.42;;
51981;SDS011;37998;53.416;6.730;2023-05-02T13:10:50;5.85;;;1.55;;
51981;SDS011;37998;53.416;6.730;2023-05-02T13:13:15;3.63;;;1.30;;
51981;SDS011;37998;53.416;6.730;2023-05-02T13:15:41;4.22;;;1.33;;
51981;SDS011;37998;53.416;6.730;2023-05-02T13:18:07;2.85;;;1.30;;
51981;SDS011;37998;53.416;6.730;2023-05-02T13:20:33;4.20;;;1.27;;
51981;SDS011;37998;53.416;6.730;2023-05-02T13:22:59;5.15;;;1.88;;
51981;SDS011;37998;53.416;6.730;2023-05-02T13:25:25;3.78;;;1.10;;
51981;SDS011;37998;53.416;6.730;2023-05-02T13:27:51;4.63;;;1.20;;
51981;SDS011;37998;53.416;6.730;2023-05-02T13:30:17;7.20;;;1.42;;
51981;SDS011;37998;53.416;6.730;2023-05-02T13:32:42;2.67;;;1.20;;
51981;SDS011;37998;53.416;6.730;2023-05-02T13:35:08;5.55;;;1.35;;
51981;SDS011;37998;53.416;6.730;2023-05-02T13:37:38;5.20;;;1.83;;
51981;SDS011;37998;53.416;6.730;2023-05-02T13:40:05;3.83;;;1.20;;
51981;SDS011;37998;53.416;6.730;2023-05-02T13:42:32;6.45;;;1.25;;
51981;SDS011;37998;53.416;6.730;2023-05-02T13:44:58;3.13;;;1.13;;
51981;SDS011;37998;53.416;6.730;2023-05-02T13:47:24;7.78;;;1.50;;
51981;SDS011;37998;53.416;6.730;2023-05-02T13:49:51;4.38;;;1.40;;
51981;SDS011;37998;53.416;6.730;2023-05-02T13:52:16;3.90;;;1.38;;
51981;SDS011;37998;53.416;6.730;2023-05-02T13:54:42;5.82;;;1.20;;
51981;SDS011;37998;53.416;6.730;2023-05-02T13:57:08;7.40;;;1.40;;
51981;SDS011;37998;53.416;6.730;2023-05-02T13:59:34;6.28;;;1.60;;
51981;SDS011;37998;53.416;6.730;2023-05-02T14:02:00;6.57;;;1.52;;
51981;SDS011;37998;53.416;6.730;2023-05-02T14:04:26;3.25;;;1.38;;
51981;SDS011;37998;53.416;6.730;2023-05-02T14:06:51;4.97;;;1.40;;
51981;SDS011;37998;53.416;6.730;2023-05-02T14:09:17;5.13;;;1.48;;
51981;SDS011;37998;53.416;6.730;2023-05-02T14:11:44;6.00;;;1.70;;
51981;SDS011;37998;53.416;6.730;2023-05-02T14:14:11;7.35;;;1.50;;
51981;SDS011;37998;53.416;6.730;2023-05-02T14:16:37;4.50;;;1.60;;
51981;SDS011;37998;53.416;6.730;2023-05-02T14:19:04;4.22;;;1.60;;
51981;SDS011;37998;53.416;6.730;2023-05-02T14:21:29;4.22;;;1.52;;
51981;SDS011;37998;53.416;6.730;2023-05-02T14:23:58;6.90;;;1.38;;
51981;SDS011;37998;53.416;6.730;2023-05-02T14:26:24;2.83;;;1.20;;
51981;SDS011;37998;53.416;6.730;2023-05-02T14:28:50;6.43;;;1.10;;
51981;SDS011;37998;53.416;6.730;2023-05-02T14:31:17;6.60;;;1.38;;
51981;SDS011;37998;53.416;6.730;2023-05-02T14:33:42;7.57;;;1.33;;
51981;SDS011;37998;53.416;6.730;2023-05-02T14:36:08;4.40;;;1.30;;
51981;SDS011;37998;53.416;6.730;2023-05-02T14:38:34;6.90;;;1.95;;
51981;SDS011;37998;53.416;6.730;2023-05-02T14:41:00;5.05;;;1.33;;
51981;SDS011;37998;53.416;6.730;2023-05-02T14:43:27;4.28;;;1.10;;
51981;SDS011;37998;53.416;6.730;2023-05-02T14:45:53;9.10;;;1.40;;
51981;SDS011;37998;53.416;6.730;2023-05-02T14:48:20;4.47;;;1.65;;
51981;SDS011;37998;53.416;6.730;2023-05-02T14:50:46;4.82;;;1.50;;
51981;SDS011;37998;53.416;6.730;2023-05-02T14:53:12;4.25;;;1.40;;
51981;SDS011;37998;53.416;6.730;2023-05-02T14:55:38;5.13;;;1.52;;
51981;SDS011;37998;53.416;6.730;2023-05-02T14:58:05;4.68;;;1.50;;
51981;SDS011;37998;53.416;6.730;2023-05-02T15:00:36;4.28;;;1.60;;
51981;SDS011;37998;53.416;6.730;2023-05-02T15:03:06;5.72;;;1.63;;
51981;SDS011;37998;53.416;6.730;2023-05-02T15:05:32;2.83;;;1.38;;
51981;SDS011;37998;53.416;6.730;2023-05-02T15:07:58;6.15;;;1.73;;
51981;SDS011;37998;53.416;6.730;2023-05-02T15:10:24;5.13;;;1.20;;
51981;SDS011;37998;53.416;6.730;2023-05-02T15:12:50;4.72;;;1.45;;
51981;SDS011;37998;53.416;6.730;2023-05-02T15:15:16;3.55;;;1.17;;
51981;SDS011;37998;53.416;6.730;2023-05-02T15:17:43;7.03;;;1.52;;
51981;SDS011;37998;53.416;6.730;2023-05-02T15:20:09;5.53;;;1.30;;
51981;SDS011;37998;53.416;6.730;2023-05-02T15:22:37;3.30;;;1.45;;
51981;SDS011;37998;53.416;6.730;2023-05-02T15:25:03;7.93;;;1.38;;
51981;SDS011;37998;53.416;6.730;2023-05-02T15:27:29;8.82;;;1.58;;
51981;SDS011;37998;53.416;6.730;2023-05-02T15:29:55;4.75;;;1.38;;